Pinero, Virginia
Current Conditions -  °F | °C
As of 6:55 PM on Saturday 25 Oct 2014 (Local Time) from KW75 Reporting Station
Clear Clear  
Wind Chill: 61°   Ceiling: Unl
Heat Index: 61°   Visibility: 10mi
Dew Point: 43°   Wind: 6mph
Humidity: 52%   Direction: 210°SSW
Pressure: 29.81"   Gusts: NA
Location:  37.4386°N, 76.5499°W
Report Text: KW75 252255Z AUTO 21005KT 10SM CLR 16/06 A2981 RMK AO1 T01600062
Loading
Personal Weather Stations






























Interactive Weather Map
Tropical Storm Tracking
New forecast layout! Learn more

10-Day Weather Forecast

Advertisements
Track Severe Weather on mobile